sensor_id;sensor_type;location;lat;lon;timestamp;P1;durP1;ratioP1;P2;durP2;ratioP2
70312;SDS011;57723;51.698;5.344;2022-07-29T00:01:47;3.57;;;1.23;;
70312;SDS011;57723;51.698;5.344;2022-07-29T00:04:12;3.03;;;1.00;;
70312;SDS011;57723;51.698;5.344;2022-07-29T00:06:38;4.90;;;1.00;;
70312;SDS011;57723;51.698;5.344;2022-07-29T00:09:03;8.13;;;1.50;;
70312;SDS011;57723;51.698;5.344;2022-07-29T00:11:28;6.00;;;1.10;;
70312;SDS011;57723;51.698;5.344;2022-07-29T00:13:53;2.30;;;1.03;;
70312;SDS011;57723;51.698;5.344;2022-07-29T00:16:19;3.47;;;1.10;;
70312;SDS011;57723;51.698;5.344;2022-07-29T00:18:44;4.73;;;1.10;;
70312;SDS011;57723;51.698;5.344;2022-07-29T00:21:09;3.00;;;1.20;;
70312;SDS011;57723;51.698;5.344;2022-07-29T00:23:34;3.23;;;1.20;;
70312;SDS011;57723;51.698;5.344;2022-07-29T00:26:00;3.53;;;1.30;;
70312;SDS011;57723;51.698;5.344;2022-07-29T00:28:25;3.40;;;1.17;;
70312;SDS011;57723;51.698;5.344;2022-07-29T00:30:50;3.83;;;1.00;;
70312;SDS011;57723;51.698;5.344;2022-07-29T00:33:18;2.97;;;1.10;;
70312;SDS011;57723;51.698;5.344;2022-07-29T00:35:43;2.15;;;1.00;;
70312;SDS011;57723;51.698;5.344;2022-07-29T00:38:09;1.75;;;0.90;;
70312;SDS011;57723;51.698;5.344;2022-07-29T00:40:34;1.80;;;1.10;;
70312;SDS011;57723;51.698;5.344;2022-07-29T00:42:59;2.30;;;1.10;;
70312;SDS011;57723;51.698;5.344;2022-07-29T00:45:25;2.30;;;1.07;;
70312;SDS011;57723;51.698;5.344;2022-07-29T00:47:52;5.53;;;1.10;;
70312;SDS011;57723;51.698;5.344;2022-07-29T00:50:18;3.25;;;1.08;;
70312;SDS011;57723;51.698;5.344;2022-07-29T00:52:43;3.70;;;1.20;;
70312;SDS011;57723;51.698;5.344;2022-07-29T00:55:10;2.37;;;0.90;;
70312;SDS011;57723;51.698;5.344;2022-07-29T00:57:35;2.10;;;1.20;;
70312;SDS011;57723;51.698;5.344;2022-07-29T01:00:01;3.00;;;1.30;;
70312;SDS011;57723;51.698;5.344;2022-07-29T01:02:26;4.63;;;1.23;;
70312;SDS011;57723;51.698;5.344;2022-07-29T01:04:51;7.63;;;1.20;;
70312;SDS011;57723;51.698;5.344;2022-07-29T01:07:17;2.17;;;1.00;;
70312;SDS011;57723;51.698;5.344;2022-07-29T01:09:43;3.87;;;1.20;;
70312;SDS011;57723;51.698;5.344;2022-07-29T01:12:09;3.35;;;1.00;;
70312;SDS011;57723;51.698;5.344;2022-07-29T01:14:34;6.13;;;1.13;;
70312;SDS011;57723;51.698;5.344;2022-07-29T01:19:47;3.73;;;1.17;;
70312;SDS011;57723;51.698;5.344;2022-07-29T01:30:06;3.97;;;1.00;;
70312;SDS011;57723;51.698;5.344;2022-07-29T01:32:32;3.53;;;1.00;;
70312;SDS011;57723;51.698;5.344;2022-07-29T01:35:02;3.65;;;1.30;;
70312;SDS011;57723;51.698;5.344;2022-07-29T01:39:56;4.05;;;1.08;;
70312;SDS011;57723;51.698;5.344;2022-07-29T01:44:59;4.10;;;1.08;;
70312;SDS011;57723;51.698;5.344;2022-07-29T01:47:42;4.32;;;1.17;;
70312;SDS011;57723;51.698;5.344;2022-07-29T01:50:08;27.00;;;2.03;;
70312;SDS011;57723;51.698;5.344;2022-07-29T01:52:41;7.72;;;1.30;;
70312;SDS011;57723;51.698;5.344;2022-07-29T01:55:09;6.57;;;1.30;;
70312;SDS011;57723;51.698;5.344;2022-07-29T01:57:35;14.35;;;1.67;;
70312;SDS011;57723;51.698;5.344;2022-07-29T02:00:01;22.70;;;3.73;;
70312;SDS011;57723;51.698;5.344;2022-07-29T02:02:29;18.42;;;2.17;;
70312;SDS011;57723;51.698;5.344;2022-07-29T02:04:55;31.98;;;4.50;;
70312;SDS011;57723;51.698;5.344;2022-07-29T02:07:21;24.10;;;3.90;;
70312;SDS011;57723;51.698;5.344;2022-07-29T02:09:49;21.00;;;4.50;;
70312;SDS011;57723;51.698;5.344;2022-07-29T02:12:14;26.63;;;5.00;;
70312;SDS011;57723;51.698;5.344;2022-07-29T02:14:43;26.77;;;5.00;;
70312;SDS011;57723;51.698;5.344;2022-07-29T02:17:13;23.83;;;5.05;;
70312;SDS011;57723;51.698;5.344;2022-07-29T02:19:41;24.27;;;4.78;;
70312;SDS011;57723;51.698;5.344;2022-07-29T02:22:08;24.77;;;4.80;;
70312;SDS011;57723;51.698;5.344;2022-07-29T02:24:35;27.42;;;6.00;;
70312;SDS011;57723;51.698;5.344;2022-07-29T02:27:00;25.55;;;4.82;;
70312;SDS011;57723;51.698;5.344;2022-07-29T02:29:27;22.50;;;4.82;;
70312;SDS011;57723;51.698;5.344;2022-07-29T02:31:54;24.63;;;5.00;;
70312;SDS011;57723;51.698;5.344;2022-07-29T02:34:20;20.20;;;4.70;;
70312;SDS011;57723;51.698;5.344;2022-07-29T02:36:51;23.05;;;5.47;;
70312;SDS011;57723;51.698;5.344;2022-07-29T02:39:19;20.23;;;4.57;;
70312;SDS011;57723;51.698;5.344;2022-07-29T02:41:47;18.50;;;4.50;;
70312;SDS011;57723;51.698;5.344;2022-07-29T02:44:13;18.90;;;4.70;;
70312;SDS011;57723;51.698;5.344;2022-07-29T02:46:41;21.38;;;5.45;;
70312;SDS011;57723;51.698;5.344;2022-07-29T02:51:53;16.45;;;4.18;;
70312;SDS011;57723;51.698;5.344;2022-07-29T02:54:34;22.08;;;4.93;;
70312;SDS011;57723;51.698;5.344;2022-07-29T02:57:06;19.63;;;4.23;;
70312;SDS011;57723;51.698;5.344;2022-07-29T02:59:34;18.20;;;4.30;;
70312;SDS011;57723;51.698;5.344;2022-07-29T03:02:01;16.92;;;4.07;;
70312;SDS011;57723;51.698;5.344;2022-07-29T03:04:27;21.92;;;5.15;;
70312;SDS011;57723;51.698;5.344;2022-07-29T03:06:55;19.83;;;4.47;;
70312;SDS011;57723;51.698;5.344;2022-07-29T03:09:23;15.98;;;4.45;;
70312;SDS011;57723;51.698;5.344;2022-07-29T03:11:48;15.98;;;3.78;;
70312;SDS011;57723;51.698;5.344;2022-07-29T03:14:14;16.37;;;4.23;;
70312;SDS011;57723;51.698;5.344;2022-07-29T03:16:39;16.73;;;4.53;;
70312;SDS011;57723;51.698;5.344;2022-07-29T03:19:05;20.38;;;4.70;;
70312;SDS011;57723;51.698;5.344;2022-07-29T03:21:30;17.07;;;4.33;;
70312;SDS011;57723;51.698;5.344;2022-07-29T03:23:59;13.03;;;4.10;;
70312;SDS011;57723;51.698;5.344;2022-07-29T03:26:26;16.77;;;4.20;;
70312;SDS011;57723;51.698;5.344;2022-07-29T03:28:56;14.87;;;3.83;;
70312;SDS011;57723;51.698;5.344;2022-07-29T03:34:06;12.65;;;4.10;;
70312;SDS011;57723;51.698;5.344;2022-07-29T03:36:47;16.50;;;3.90;;
70312;SDS011;57723;51.698;5.344;2022-07-29T03:39:38;11.27;;;3.53;;
70312;SDS011;57723;51.698;5.344;2022-07-29T03:42:01;14.40;;;4.27;;
70312;SDS011;57723;51.698;5.344;2022-07-29T03:44:52;11.90;;;3.90;;
70312;SDS011;57723;51.698;5.344;2022-07-29T03:47:25;10.95;;;3.42;;
70312;SDS011;57723;51.698;5.344;2022-07-29T03:49:56;10.38;;;2.88;;
70312;SDS011;57723;51.698;5.344;2022-07-29T03:52:24;12.52;;;3.45;;
70312;SDS011;57723;51.698;5.344;2022-07-29T03:54:53;10.00;;;3.53;;
70312;SDS011;57723;51.698;5.344;2022-07-29T03:57:24;10.83;;;3.13;;
70312;SDS011;57723;51.698;5.344;2022-07-29T04:00:03;9.20;;;3.40;;
70312;SDS011;57723;51.698;5.344;2022-07-29T04:02:32;14.55;;;3.70;;
70312;SDS011;57723;51.698;5.344;2022-07-29T04:04:57;10.95;;;3.38;;
70312;SDS011;57723;51.698;5.344;2022-07-29T04:07:23;11.03;;;3.27;;
70312;SDS011;57723;51.698;5.344;2022-07-29T04:09:48;10.10;;;3.13;;
70312;SDS011;57723;51.698;5.344;2022-07-29T04:12:16;11.53;;;3.00;;
70312;SDS011;57723;51.698;5.344;2022-07-29T04:14:44;11.50;;;3.35;;
70312;SDS011;57723;51.698;5.344;2022-07-29T04:17:12;10.60;;;3.13;;
70312;SDS011;57723;51.698;5.344;2022-07-29T04:19:37;8.23;;;2.80;;
70312;SDS011;57723;51.698;5.344;2022-07-29T04:22:05;10.77;;;2.75;;
70312;SDS011;57723;51.698;5.344;2022-07-29T04:24:30;12.50;;;3.47;;
70312;SDS011;57723;51.698;5.344;2022-07-29T04:26:56;9.03;;;2.90;;
70312;SDS011;57723;51.698;5.344;2022-07-29T04:29:21;9.63;;;2.60;;
70312;SDS011;57723;51.698;5.344;2022-07-29T04:31:58;9.25;;;2.90;;
70312;SDS011;57723;51.698;5.344;2022-07-29T04:34:24;8.90;;;2.67;;
70312;SDS011;57723;51.698;5.344;2022-07-29T04:36:49;10.05;;;2.85;;
70312;SDS011;57723;51.698;5.344;2022-07-29T04:39:20;13.17;;;2.90;;
70312;SDS011;57723;51.698;5.344;2022-07-29T04:41:45;8.10;;;2.70;;
70312;SDS011;57723;51.698;5.344;2022-07-29T04:44:21;8.20;;;2.67;;
70312;SDS011;57723;51.698;5.344;2022-07-29T04:46:54;12.13;;;2.83;;
70312;SDS011;57723;51.698;5.344;2022-07-29T04:49:19;8.05;;;2.42;;
70312;SDS011;57723;51.698;5.344;2022-07-29T04:51:44;8.80;;;2.80;;
70312;SDS011;57723;51.698;5.344;2022-07-29T04:54:10;8.63;;;2.93;;
70312;SDS011;57723;51.698;5.344;2022-07-29T04:56:35;8.60;;;2.53;;
70312;SDS011;57723;51.698;5.344;2022-07-29T04:59:11;8.40;;;2.70;;
70312;SDS011;57723;51.698;5.344;2022-07-29T05:01:37;6.80;;;2.40;;
70312;SDS011;57723;51.698;5.344;2022-07-29T05:04:05;7.07;;;2.47;;
70312;SDS011;57723;51.698;5.344;2022-07-29T05:06:34;6.60;;;2.25;;
70312;SDS011;57723;51.698;5.344;2022-07-29T05:09:01;6.73;;;2.23;;
70312;SDS011;57723;51.698;5.344;2022-07-29T05:11:34;7.70;;;2.47;;
70312;SDS011;57723;51.698;5.344;2022-07-29T05:14:20;6.20;;;2.30;;
70312;SDS011;57723;51.698;5.344;2022-07-29T05:16:46;6.30;;;2.50;;
70312;SDS011;57723;51.698;5.344;2022-07-29T05:19:17;6.65;;;2.60;;
70312;SDS011;57723;51.698;5.344;2022-07-29T05:21:44;5.97;;;2.17;;
70312;SDS011;57723;51.698;5.344;2022-07-29T05:24:09;7.45;;;2.35;;
70312;SDS011;57723;51.698;5.344;2022-07-29T05:26:34;6.50;;;2.30;;
70312;SDS011;57723;51.698;5.344;2022-07-29T05:29:00;6.40;;;2.20;;
70312;SDS011;57723;51.698;5.344;2022-07-29T05:31:25;6.10;;;2.10;;
70312;SDS011;57723;51.698;5.344;2022-07-29T05:33:50;5.63;;;2.17;;
70312;SDS011;57723;51.698;5.344;2022-07-29T05:36:15;6.70;;;2.63;;
70312;SDS011;57723;51.698;5.344;2022-07-29T05:38:40;6.50;;;2.30;;
70312;SDS011;57723;51.698;5.344;2022-07-29T05:41:05;8.03;;;2.10;;
70312;SDS011;57723;51.698;5.344;2022-07-29T05:43:31;5.53;;;2.30;;
70312;SDS011;57723;51.698;5.344;2022-07-29T05:45:56;5.97;;;2.27;;
70312;SDS011;57723;51.698;5.344;2022-07-29T05:48:22;4.93;;;2.10;;
70312;SDS011;57723;51.698;5.344;2022-07-29T05:50:47;8.23;;;2.20;;
70312;SDS011;57723;51.698;5.344;2022-07-29T05:53:13;7.45;;;2.30;;
70312;SDS011;57723;51.698;5.344;2022-07-29T05:55:46;6.07;;;2.00;;
70312;SDS011;57723;51.698;5.344;2022-07-29T05:58:20;5.10;;;1.95;;
70312;SDS011;57723;51.698;5.344;2022-07-29T06:00:46;4.70;;;2.03;;
70312;SDS011;57723;51.698;5.344;2022-07-29T06:03:11;5.97;;;2.07;;
70312;SDS011;57723;51.698;5.344;2022-07-29T06:05:37;4.50;;;2.00;;
70312;SDS011;57723;51.698;5.344;2022-07-29T06:08:02;5.40;;;2.10;;
70312;SDS011;57723;51.698;5.344;2022-07-29T06:10:28;5.80;;;2.07;;
70312;SDS011;57723;51.698;5.344;2022-07-29T06:12:54;5.72;;;2.20;;
70312;SDS011;57723;51.698;5.344;2022-07-29T06:15:20;5.13;;;1.70;;
70312;SDS011;57723;51.698;5.344;2022-07-29T06:17:49;5.78;;;2.15;;
70312;SDS011;57723;51.698;5.344;2022-07-29T06:20:14;4.28;;;1.77;;
70312;SDS011;57723;51.698;5.344;2022-07-29T06:22:39;5.53;;;2.03;;
70312;SDS011;57723;51.698;5.344;2022-07-29T06:25:08;4.70;;;2.10;;
70312;SDS011;57723;51.698;5.344;2022-07-29T06:27:36;4.05;;;1.60;;
70312;SDS011;57723;51.698;5.344;2022-07-29T06:30:02;3.80;;;1.90;;
70312;SDS011;57723;51.698;5.344;2022-07-29T06:32:28;4.63;;;1.80;;
70312;SDS011;57723;51.698;5.344;2022-07-29T06:34:53;5.40;;;1.70;;
70312;SDS011;57723;51.698;5.344;2022-07-29T06:37:24;4.17;;;1.80;;
70312;SDS011;57723;51.698;5.344;2022-07-29T06:39:49;6.38;;;1.95;;
70312;SDS011;57723;51.698;5.344;2022-07-29T06:42:34;4.27;;;1.80;;
70312;SDS011;57723;51.698;5.344;2022-07-29T06:45:02;3.72;;;1.77;;
70312;SDS011;57723;51.698;5.344;2022-07-29T06:47:34;4.97;;;1.77;;
70312;SDS011;57723;51.698;5.344;2022-07-29T06:50:02;4.40;;;1.90;;
70312;SDS011;57723;51.698;5.344;2022-07-29T06:52:27;5.28;;;1.65;;
70312;SDS011;57723;51.698;5.344;2022-07-29T06:54:52;5.47;;;1.80;;
70312;SDS011;57723;51.698;5.344;2022-07-29T06:57:24;5.20;;;1.60;;
70312;SDS011;57723;51.698;5.344;2022-07-29T06:59:50;4.22;;;1.67;;
70312;SDS011;57723;51.698;5.344;2022-07-29T07:02:38;3.67;;;1.80;;
70312;SDS011;57723;51.698;5.344;2022-07-29T07:05:04;5.03;;;1.70;;
70312;SDS011;57723;51.698;5.344;2022-07-29T07:07:30;5.78;;;1.83;;
70312;SDS011;57723;51.698;5.344;2022-07-29T07:09:56;4.57;;;1.73;;
70312;SDS011;57723;51.698;5.344;2022-07-29T07:12:21;4.03;;;1.88;;
70312;SDS011;57723;51.698;5.344;2022-07-29T07:14:50;5.10;;;2.08;;
70312;SDS011;57723;51.698;5.344;2022-07-29T07:17:23;3.27;;;1.67;;
70312;SDS011;57723;51.698;5.344;2022-07-29T07:19:51;5.30;;;1.88;;
70312;SDS011;57723;51.698;5.344;2022-07-29T07:22:20;3.40;;;1.50;;
70312;SDS011;57723;51.698;5.344;2022-07-29T07:24:46;4.03;;;1.70;;
70312;SDS011;57723;51.698;5.344;2022-07-29T07:27:11;3.73;;;1.70;;
70312;SDS011;57723;51.698;5.344;2022-07-29T07:29:36;3.47;;;1.57;;
70312;SDS011;57723;51.698;5.344;2022-07-29T07:32:01;4.80;;;1.73;;
70312;SDS011;57723;51.698;5.344;2022-07-29T07:34:33;4.75;;;1.77;;
70312;SDS011;57723;51.698;5.344;2022-07-29T07:36:58;4.50;;;1.75;;
70312;SDS011;57723;51.698;5.344;2022-07-29T07:39:33;4.17;;;1.93;;
70312;SDS011;57723;51.698;5.344;2022-07-29T07:42:07;4.53;;;2.25;;
70312;SDS011;57723;51.698;5.344;2022-07-29T07:44:35;4.10;;;1.60;;
70312;SDS011;57723;51.698;5.344;2022-07-29T07:47:14;5.37;;;2.20;;
70312;SDS011;57723;51.698;5.344;2022-07-29T07:49:51;3.72;;;1.55;;
70312;SDS011;57723;51.698;5.344;2022-07-29T07:52:16;3.88;;;1.65;;
70312;SDS011;57723;51.698;5.344;2022-07-29T07:54:42;4.03;;;1.70;;
70312;SDS011;57723;51.698;5.344;2022-07-29T07:57:11;3.38;;;1.40;;
70312;SDS011;57723;51.698;5.344;2022-07-29T07:59:36;3.20;;;1.70;;
70312;SDS011;57723;51.698;5.344;2022-07-29T08:02:02;2.88;;;1.40;;
70312;SDS011;57723;51.698;5.344;2022-07-29T08:04:27;4.67;;;1.50;;
70312;SDS011;57723;51.698;5.344;2022-07-29T08:06:52;4.67;;;1.70;;
70312;SDS011;57723;51.698;5.344;2022-07-29T08:09:19;3.22;;;1.40;;
70312;SDS011;57723;51.698;5.344;2022-07-29T08:11:44;3.33;;;1.43;;
70312;SDS011;57723;51.698;5.344;2022-07-29T08:14:09;2.97;;;1.60;;
70312;SDS011;57723;51.698;5.344;2022-07-29T08:16:34;4.87;;;1.90;;
70312;SDS011;57723;51.698;5.344;2022-07-29T08:19:00;3.57;;;1.77;;
70312;SDS011;57723;51.698;5.344;2022-07-29T08:21:25;4.03;;;1.60;;
70312;SDS011;57723;51.698;5.344;2022-07-29T08:23:50;4.23;;;1.70;;
70312;SDS011;57723;51.698;5.344;2022-07-29T08:26:36;3.03;;;1.60;;
70312;SDS011;57723;51.698;5.344;2022-07-29T08:29:01;3.20;;;1.50;;
70312;SDS011;57723;51.698;5.344;2022-07-29T08:31:26;3.60;;;1.50;;
70312;SDS011;57723;51.698;5.344;2022-07-29T08:33:51;3.73;;;1.70;;
70312;SDS011;57723;51.698;5.344;2022-07-29T08:36:16;3.23;;;1.33;;
70312;SDS011;57723;51.698;5.344;2022-07-29T08:38:41;3.87;;;1.70;;
70312;SDS011;57723;51.698;5.344;2022-07-29T08:41:10;3.42;;;1.58;;
70312;SDS011;57723;51.698;5.344;2022-07-29T08:43:35;5.17;;;1.63;;
70312;SDS011;57723;51.698;5.344;2022-07-29T08:46:02;3.53;;;1.58;;
70312;SDS011;57723;51.698;5.344;2022-07-29T08:48:27;3.53;;;1.50;;
70312;SDS011;57723;51.698;5.344;2022-07-29T08:50:54;3.13;;;1.23;;
70312;SDS011;57723;51.698;5.344;2022-07-29T08:53:29;2.88;;;1.50;;
70312;SDS011;57723;51.698;5.344;2022-07-29T08:55:55;2.28;;;1.50;;
70312;SDS011;57723;51.698;5.344;2022-07-29T08:58:23;3.07;;;1.53;;
70312;SDS011;57723;51.698;5.344;2022-07-29T09:00:50;3.38;;;1.40;;
70312;SDS011;57723;51.698;5.344;2022-07-29T09:03:17;2.58;;;1.48;;
70312;SDS011;57723;51.698;5.344;2022-07-29T09:05:44;3.00;;;1.33;;
70312;SDS011;57723;51.698;5.344;2022-07-29T09:08:10;3.35;;;1.40;;
70312;SDS011;57723;51.698;5.344;2022-07-29T09:10:35;3.90;;;1.35;;
70312;SDS011;57723;51.698;5.344;2022-07-29T09:13:01;3.30;;;1.53;;
70312;SDS011;57723;51.698;5.344;2022-07-29T09:15:26;2.57;;;1.50;;
70312;SDS011;57723;51.698;5.344;2022-07-29T09:17:51;3.93;;;1.47;;
70312;SDS011;57723;51.698;5.344;2022-07-29T09:20:21;2.70;;;1.30;;
70312;SDS011;57723;51.698;5.344;2022-07-29T09:22:50;2.30;;;1.15;;
70312;SDS011;57723;51.698;5.344;2022-07-29T09:25:36;2.20;;;1.27;;
70312;SDS011;57723;51.698;5.344;2022-07-29T09:30:57;3.03;;;1.40;;
70312;SDS011;57723;51.698;5.344;2022-07-29T09:33:21;2.35;;;1.50;;
70312;SDS011;57723;51.698;5.344;2022-07-29T09:38:31;3.17;;;1.30;;
70312;SDS011;57723;51.698;5.344;2022-07-29T09:40:57;2.42;;;1.50;;
70312;SDS011;57723;51.698;5.344;2022-07-29T09:43:23;3.00;;;1.40;;
70312;SDS011;57723;51.698;5.344;2022-07-29T09:45:48;3.07;;;1.33;;
70312;SDS011;57723;51.698;5.344;2022-07-29T09:48:20;2.03;;;1.20;;
70312;SDS011;57723;51.698;5.344;2022-07-29T09:50:46;2.37;;;1.20;;
70312;SDS011;57723;51.698;5.344;2022-07-29T09:53:29;2.70;;;1.10;;
70312;SDS011;57723;51.698;5.344;2022-07-29T09:55:55;3.03;;;1.40;;
70312;SDS011;57723;51.698;5.344;2022-07-29T09:58:20;2.37;;;1.30;;
70312;SDS011;57723;51.698;5.344;2022-07-29T10:00:46;3.03;;;1.30;;
70312;SDS011;57723;51.698;5.344;2022-07-29T10:03:12;4.20;;;1.40;;
70312;SDS011;57723;51.698;5.344;2022-07-29T10:05:37;2.25;;;1.30;;
70312;SDS011;57723;51.698;5.344;2022-07-29T10:08:03;1.90;;;1.20;;
70312;SDS011;57723;51.698;5.344;2022-07-29T10:10:32;2.57;;;1.20;;
70312;SDS011;57723;51.698;5.344;2022-07-29T10:13:00;2.97;;;1.50;;
70312;SDS011;57723;51.698;5.344;2022-07-29T10:15:33;2.60;;;1.30;;
70312;SDS011;57723;51.698;5.344;2022-07-29T10:18:01;3.40;;;1.30;;
70312;SDS011;57723;51.698;5.344;2022-07-29T10:20:27;1.77;;;1.20;;
70312;SDS011;57723;51.698;5.344;2022-07-29T10:22:52;3.07;;;1.17;;
70312;SDS011;57723;51.698;5.344;2022-07-29T10:25:18;2.23;;;1.20;;
70312;SDS011;57723;51.698;5.344;2022-07-29T10:27:47;2.92;;;1.20;;
70312;SDS011;57723;51.698;5.344;2022-07-29T10:30:14;3.17;;;1.20;;
70312;SDS011;57723;51.698;5.344;2022-07-29T10:32:49;3.50;;;1.10;;
70312;SDS011;57723;51.698;5.344;2022-07-29T10:41:03;2.60;;;1.30;;
70312;SDS011;57723;51.698;5.344;2022-07-29T10:43:50;3.17;;;1.17;;
70312;SDS011;57723;51.698;5.344;2022-07-29T10:46:16;2.88;;;1.20;;
70312;SDS011;57723;51.698;5.344;2022-07-29T10:51:33;3.33;;;1.20;;
70312;SDS011;57723;51.698;5.344;2022-07-29T10:54:12;2.17;;;1.07;;
70312;SDS011;57723;51.698;5.344;2022-07-29T10:56:37;2.77;;;1.20;;
70312;SDS011;57723;51.698;5.344;2022-07-29T11:01:43;2.03;;;1.05;;
70312;SDS011;57723;51.698;5.344;2022-07-29T11:04:08;2.28;;;1.20;;
70312;SDS011;57723;51.698;5.344;2022-07-29T11:09:18;1.90;;;1.13;;
70312;SDS011;57723;51.698;5.344;2022-07-29T11:11:44;3.93;;;1.20;;
70312;SDS011;57723;51.698;5.344;2022-07-29T11:14:10;2.63;;;1.13;;
70312;SDS011;57723;51.698;5.344;2022-07-29T11:19:20;2.08;;;1.10;;
70312;SDS011;57723;51.698;5.344;2022-07-29T11:21:45;3.43;;;1.30;;
70312;SDS011;57723;51.698;5.344;2022-07-29T11:26:43;3.33;;;1.30;;
70312;SDS011;57723;51.698;5.344;2022-07-29T11:29:20;2.33;;;1.33;;
70312;SDS011;57723;51.698;5.344;2022-07-29T11:31:48;2.30;;;1.10;;
70312;SDS011;57723;51.698;5.344;2022-07-29T11:34:28;2.35;;;1.33;;
70312;SDS011;57723;51.698;5.344;2022-07-29T11:44:57;2.75;;;1.02;;
70312;SDS011;57723;51.698;5.344;2022-07-29T11:47:22;3.00;;;1.40;;
70312;SDS011;57723;51.698;5.344;2022-07-29T11:49:50;4.60;;;1.65;;
70312;SDS011;57723;51.698;5.344;2022-07-29T11:52:16;3.60;;;1.37;;
70312;SDS011;57723;51.698;5.344;2022-07-29T11:54:42;2.35;;;1.30;;
70312;SDS011;57723;51.698;5.344;2022-07-29T11:57:07;2.03;;;1.20;;
70312;SDS011;57723;51.698;5.344;2022-07-29T11:59:32;2.57;;;1.43;;
70312;SDS011;57723;51.698;5.344;2022-07-29T12:02:03;2.20;;;1.15;;
70312;SDS011;57723;51.698;5.344;2022-07-29T12:04:28;2.77;;;1.30;;
70312;SDS011;57723;51.698;5.344;2022-07-29T12:06:54;2.58;;;1.05;;
70312;SDS011;57723;51.698;5.344;2022-07-29T12:09:19;2.53;;;1.10;;
70312;SDS011;57723;51.698;5.344;2022-07-29T12:11:45;2.13;;;1.20;;
70312;SDS011;57723;51.698;5.344;2022-07-29T12:14:29;2.83;;;1.20;;
70312;SDS011;57723;51.698;5.344;2022-07-29T12:16:55;3.42;;;1.40;;
70312;SDS011;57723;51.698;5.344;2022-07-29T12:19:21;2.50;;;1.15;;
70312;SDS011;57723;51.698;5.344;2022-07-29T12:21:46;2.73;;;1.23;;
70312;SDS011;57723;51.698;5.344;2022-07-29T12:24:12;2.85;;;1.20;;
70312;SDS011;57723;51.698;5.344;2022-07-29T12:26:59;1.88;;;1.10;;
70312;SDS011;57723;51.698;5.344;2022-07-29T12:29:24;2.60;;;1.20;;
70312;SDS011;57723;51.698;5.344;2022-07-29T12:31:54;2.03;;;1.23;;
70312;SDS011;57723;51.698;5.344;2022-07-29T12:34:20;4.28;;;1.50;;
70312;SDS011;57723;51.698;5.344;2022-07-29T12:36:45;3.65;;;1.50;;
70312;SDS011;57723;51.698;5.344;2022-07-29T12:39:11;4.63;;;1.70;;
70312;SDS011;57723;51.698;5.344;2022-07-29T12:41:37;4.38;;;1.40;;
70312;SDS011;57723;51.698;5.344;2022-07-29T12:44:02;2.20;;;1.27;;
70312;SDS011;57723;51.698;5.344;2022-07-29T12:46:28;2.17;;;1.20;;
70312;SDS011;57723;51.698;5.344;2022-07-29T12:48:55;2.67;;;1.50;;
70312;SDS011;57723;51.698;5.344;2022-07-29T12:51:28;2.92;;;1.30;;
70312;SDS011;57723;51.698;5.344;2022-07-29T12:54:13;3.60;;;1.30;;
70312;SDS011;57723;51.698;5.344;2022-07-29T12:56:38;2.20;;;1.23;;
70312;SDS011;57723;51.698;5.344;2022-07-29T12:59:17;3.77;;;1.30;;
70312;SDS011;57723;51.698;5.344;2022-07-29T13:01:46;3.38;;;1.17;;
70312;SDS011;57723;51.698;5.344;2022-07-29T13:04:23;1.98;;;1.10;;
70312;SDS011;57723;51.698;5.344;2022-07-29T13:06:48;3.20;;;1.25;;
70312;SDS011;57723;51.698;5.344;2022-07-29T13:09:22;2.07;;;1.33;;
70312;SDS011;57723;51.698;5.344;2022-07-29T13:11:48;2.15;;;1.10;;
70312;SDS011;57723;51.698;5.344;2022-07-29T13:14:30;3.57;;;1.30;;
70312;SDS011;57723;51.698;5.344;2022-07-29T13:17:09;2.72;;;1.13;;
70312;SDS011;57723;51.698;5.344;2022-07-29T13:22:06;1.67;;;1.05;;
70312;SDS011;57723;51.698;5.344;2022-07-29T13:24:31;1.40;;;1.05;;
70312;SDS011;57723;51.698;5.344;2022-07-29T13:26:56;1.80;;;1.10;;
70312;SDS011;57723;51.698;5.344;2022-07-29T13:29:22;1.87;;;1.10;;
70312;SDS011;57723;51.698;5.344;2022-07-29T13:31:48;4.10;;;1.20;;
70312;SDS011;57723;51.698;5.344;2022-07-29T13:34:16;1.75;;;1.10;;
70312;SDS011;57723;51.698;5.344;2022-07-29T13:36:43;2.17;;;1.30;;
70312;SDS011;57723;51.698;5.344;2022-07-29T13:39:11;1.40;;;1.10;;
70312;SDS011;57723;51.698;5.344;2022-07-29T13:41:38;2.05;;;1.10;;
70312;SDS011;57723;51.698;5.344;2022-07-29T13:44:04;1.70;;;1.13;;
70312;SDS011;57723;51.698;5.344;2022-07-29T13:46:29;2.60;;;1.30;;
70312;SDS011;57723;51.698;5.344;2022-07-29T13:48:54;2.40;;;1.20;;
70312;SDS011;57723;51.698;5.344;2022-07-29T13:51:19;2.70;;;0.97;;
70312;SDS011;57723;51.698;5.344;2022-07-29T13:53:44;2.63;;;1.20;;
70312;SDS011;57723;51.698;5.344;2022-07-29T13:56:10;1.83;;;1.10;;
70312;SDS011;57723;51.698;5.344;2022-07-29T13:58:35;1.43;;;1.20;;
70312;SDS011;57723;51.698;5.344;2022-07-29T14:01:00;1.20;;;1.10;;
70312;SDS011;57723;51.698;5.344;2022-07-29T14:03:26;2.30;;;1.30;;
70312;SDS011;57723;51.698;5.344;2022-07-29T14:05:51;2.70;;;1.20;;
70312;SDS011;57723;51.698;5.344;2022-07-29T14:08:19;2.45;;;1.40;;
70312;SDS011;57723;51.698;5.344;2022-07-29T14:10:44;2.00;;;1.30;;
70312;SDS011;57723;51.698;5.344;2022-07-29T14:13:09;1.20;;;1.10;;
70312;SDS011;57723;51.698;5.344;2022-07-29T14:15:37;2.33;;;1.10;;
70312;SDS011;57723;51.698;5.344;2022-07-29T14:18:04;1.70;;;1.30;;
70312;SDS011;57723;51.698;5.344;2022-07-29T14:20:30;3.20;;;1.20;;
70312;SDS011;57723;51.698;5.344;2022-07-29T14:22:56;2.00;;;1.20;;
70312;SDS011;57723;51.698;5.344;2022-07-29T14:25:24;2.10;;;1.20;;
70312;SDS011;57723;51.698;5.344;2022-07-29T14:27:49;2.28;;;1.20;;
70312;SDS011;57723;51.698;5.344;2022-07-29T14:30:14;1.70;;;1.00;;
70312;SDS011;57723;51.698;5.344;2022-07-29T14:32:40;1.70;;;1.10;;
70312;SDS011;57723;51.698;5.344;2022-07-29T14:35:08;1.23;;;0.90;;
70312;SDS011;57723;51.698;5.344;2022-07-29T14:37:43;2.05;;;1.20;;
70312;SDS011;57723;51.698;5.344;2022-07-29T14:40:11;2.10;;;1.20;;
70312;SDS011;57723;51.698;5.344;2022-07-29T14:42:37;2.40;;;1.17;;
70312;SDS011;57723;51.698;5.344;2022-07-29T14:45:23;1.40;;;1.00;;
70312;SDS011;57723;51.698;5.344;2022-07-29T14:47:48;3.25;;;1.20;;
70312;SDS011;57723;51.698;5.344;2022-07-29T14:50:14;1.75;;;1.00;;
70312;SDS011;57723;51.698;5.344;2022-07-29T14:52:39;1.97;;;1.07;;
70312;SDS011;57723;51.698;5.344;2022-07-29T14:55:05;1.37;;;1.10;;
70312;SDS011;57723;51.698;5.344;2022-07-29T14:57:30;1.40;;;1.00;;
70312;SDS011;57723;51.698;5.344;2022-07-29T15:00:03;1.48;;;1.05;;
70312;SDS011;57723;51.698;5.344;2022-07-29T15:02:28;3.35;;;1.10;;
70312;SDS011;57723;51.698;5.344;2022-07-29T15:04:56;1.60;;;1.20;;
70312;SDS011;57723;51.698;5.344;2022-07-29T15:07:21;1.50;;;1.10;;
70312;SDS011;57723;51.698;5.344;2022-07-29T15:09:46;1.63;;;1.20;;
70312;SDS011;57723;51.698;5.344;2022-07-29T15:12:14;3.80;;;1.20;;
70312;SDS011;57723;51.698;5.344;2022-07-29T15:14:40;1.77;;;1.13;;
70312;SDS011;57723;51.698;5.344;2022-07-29T15:17:05;3.00;;;1.20;;
70312;SDS011;57723;51.698;5.344;2022-07-29T15:19:30;1.93;;;1.10;;
70312;SDS011;57723;51.698;5.344;2022-07-29T15:21:55;2.67;;;1.17;;
70312;SDS011;57723;51.698;5.344;2022-07-29T15:24:21;2.10;;;1.30;;
70312;SDS011;57723;51.698;5.344;2022-07-29T15:26:48;2.33;;;1.20;;
70312;SDS011;57723;51.698;5.344;2022-07-29T15:29:14;2.55;;;1.05;;
70312;SDS011;57723;51.698;5.344;2022-07-29T15:31:39;2.40;;;1.20;;
70312;SDS011;57723;51.698;5.344;2022-07-29T15:34:04;1.77;;;1.30;;
70312;SDS011;57723;51.698;5.344;2022-07-29T15:36:30;2.07;;;1.30;;
70312;SDS011;57723;51.698;5.344;2022-07-29T15:38:55;1.80;;;1.20;;
70312;SDS011;57723;51.698;5.344;2022-07-29T15:41:23;1.63;;;1.10;;
70312;SDS011;57723;51.698;5.344;2022-07-29T15:43:48;3.47;;;1.38;;
70312;SDS011;57723;51.698;5.344;2022-07-29T15:46:14;2.23;;;1.20;;